Time;durP1;ratioP1;P1;durP2;ratioP2;P2;SDS_P1;SDS_P2;PMS_P1;PMS_P2;Temp;Humidity;BMP_temperature;BMP_pressure;BME280_temperature;BME280_humidity;BME280_pressure;Samples;Min_cycle;Max_cycle;Signal;HPM_P1;HPM_P2
2022/08/26 00:01:53;;;;;;;2.80;2.13;;;;;;;25.30;100.00;-24518.25;5001917;28;20592;-61
2022/08/26 00:04:18;;;;;;;3.78;2.83;;;;;;;25.15;100.00;-24514.28;5005469;28;20184;-61
2022/08/26 00:06:44;;;;;;;6.20;2.33;;;;;;;24.81;100.00;-24505.03;5006588;28;20185;-61
2022/08/26 00:09:10;;;;;;;4.32;2.45;;;;;;;24.68;100.00;-24501.31;5005777;28;20179;-62
2022/08/26 00:11:35;;;;;;;5.82;2.38;;;;;;;25.04;100.00;-24511.25;5000800;28;20553;-63
2022/08/26 00:14:01;;;;;;;5.35;2.50;;;;;;;24.74;100.00;-24503.09;5001747;28;20168;-62
2022/08/26 00:16:28;;;;;;;5.28;2.22;;;;;;;24.86;100.00;-24506.41;5000112;28;20639;-62
2022/08/26 00:18:54;;;;;;;7.93;2.50;;;;;;;25.01;100.00;-24510.41;5002093;28;20239;-61
2022/08/26 00:21:19;;;;;;;5.47;3.05;;;;;;;25.00;100.00;-24510.13;4983296;28;20177;-61
2022/08/26 00:23:45;;;;;;;3.45;2.40;;;;;;;24.76;100.00;-24503.66;4985095;28;20190;-61
2022/08/26 00:26:11;;;;;;;8.73;2.80;;;;;;;25.13;100.00;-24513.72;5001968;28;20184;-62
2022/08/26 00:28:37;;;;;;;8.18;2.45;;;;;;;25.08;100.00;-24512.34;5001028;28;20266;-62
2022/08/26 00:31:03;;;;;;;3.28;2.30;;;;;;;24.86;100.00;-24506.28;5007147;28;20188;-62
2022/08/26 00:33:29;;;;;;;3.00;2.13;;;;;;;25.13;100.00;-24513.56;4999649;28;20354;-62
2022/08/26 00:35:54;;;;;;;6.10;2.65;;;;;;;25.19;100.00;-24515.38;5002764;28;20180;-61
2022/08/26 00:38:21;;;;;;;3.72;2.50;;;;;;;24.83;100.00;-24505.59;5000403;28;20180;-61
2022/08/26 00:40:56;;;;;;;7.93;2.28;;;;;;;24.92;100.00;-24507.94;5000284;28;20192;-62
2022/08/26 00:43:23;;;;;;;3.67;2.22;;;;;;;25.07;100.00;-24512.19;5000065;28;20589;-62
2022/08/26 00:45:49;;;;;;;4.55;2.67;;;;;;;25.17;100.00;-24514.81;5006273;28;20180;-62
2022/08/26 00:48:18;;;;;;;4.07;2.53;;;;;;;25.08;100.00;-24512.47;5000324;28;20191;-64
2022/08/26 00:51:13;;;;;;;4.57;2.38;;;;;;;25.19;100.00;-24515.22;4999282;28;20184;-62
2022/08/26 00:53:46;;;;;;;3.90;2.38;;;;;;;24.98;100.00;-24509.59;5002202;28;20240;-62
2022/08/26 00:56:22;;;;;;;4.93;2.03;;;;;;;25.13;100.00;-24513.56;5006897;28;20330;-62
2022/08/26 00:58:49;;;;;;;9.27;3.03;;;;;;;25.06;100.00;-24511.91;5005450;28;20541;-62
2022/08/26 01:01:15;;;;;;;6.53;2.30;;;;;;;25.02;100.00;-24510.69;5001193;28;20184;-62
2022/08/26 01:03:43;;;;;;;4.65;2.38;;;;;;;24.95;97.72;-24508.75;5006579;28;20700;-62
2022/08/26 01:06:09;;;;;;;8.00;3.00;;;;;;;25.16;98.84;-24514.53;5002029;28;20534;-62
2022/08/26 01:08:35;;;;;;;5.80;2.78;;;;;;;24.94;100.00;-24508.47;5004733;28;20192;-62
2022/08/26 01:11:01;;;;;;;7.85;2.67;;;;;;;24.91;100.00;-24507.66;5005213;28;20197;-62
2022/08/26 01:13:28;;;;;;;6.38;2.20;;;;;;;25.04;100.00;-24511.25;4999351;28;20207;-62
2022/08/26 01:15:57;;;;;;;4.10;2.30;;;;;;;25.15;100.00;-24514.13;5003715;28;20188;-62
2022/08/26 01:18:24;;;;;;;4.05;2.30;;;;;;;25.15;100.00;-24514.28;4999000;28;20571;-62
2022/08/26 01:21:23;;;;;;;5.90;2.90;;;;;;;25.17;99.12;-24514.69;5005690;28;20575;-62
2022/08/26 01:23:51;;;;;;;5.18;2.15;;;;;;;24.75;100.00;-24503.25;5006832;28;20252;-62
2022/08/26 01:26:25;;;;;;;5.00;2.40;;;;;;;24.75;100.00;-24503.38;5007951;28;20188;-62
2022/08/26 01:28:54;;;;;;;5.32;2.85;;;;;;;24.93;100.00;-24508.22;5000756;28;20175;-62
2022/08/26 01:31:24;;;;;;;4.72;2.42;;;;;;;24.64;100.00;-24500.34;4999525;28;20246;-62
2022/08/26 01:34:12;;;;;;;5.85;2.38;;;;;;;24.79;100.00;-24504.47;5005412;28;20287;-62
2022/08/26 01:36:38;;;;;;;5.63;2.42;;;;;;;24.57;100.00;-24498.41;5004725;28;20192;-62
2022/08/26 01:39:04;;;;;;;3.85;2.28;;;;;;;24.48;100.00;-24495.94;5000562;28;20191;-62
2022/08/26 01:41:31;;;;;;;3.80;2.38;;;;;;;24.62;100.00;-24499.94;4998532;28;20231;-62
2022/08/26 01:43:59;;;;;;;5.22;2.80;;;;;;;24.89;100.00;-24507.25;5007910;28;20188;-62
2022/08/26 01:46:28;;;;;;;5.32;2.40;;;;;;;24.70;100.00;-24502.00;5013964;28;20180;-62
2022/08/26 01:48:57;;;;;;;4.28;2.50;;;;;;;24.50;100.00;-24496.50;5002776;28;20375;-62
2022/08/26 01:51:25;;;;;;;7.85;2.15;;;;;;;24.69;100.00;-24501.59;4999093;28;20267;-62
2022/08/26 01:53:51;;;;;;;3.58;2.40;;;;;;;24.53;100.00;-24497.47;4999712;28;20196;-62
2022/08/26 01:56:16;;;;;;;4.43;2.50;;;;;;;24.74;100.00;-24502.97;4999600;28;20246;-62
2022/08/26 01:58:46;;;;;;;7.13;2.58;;;;;;;24.73;100.00;-24502.69;5004174;28;20176;-62
2022/08/26 02:01:12;;;;;;;8.85;2.63;;;;;;;24.53;100.00;-24497.47;4999877;28;20676;-62
2022/08/26 02:03:50;;;;;;;6.97;2.47;;;;;;;24.66;100.00;-24500.91;4998790;28;20184;-62
2022/08/26 02:06:18;;;;;;;4.70;2.40;;;;;;;24.34;100.00;-24492.09;4999377;28;21095;-62
2022/08/26 02:08:46;;;;;;;2.50;2.22;;;;;;;24.19;100.00;-24488.22;5003627;28;20553;-62
2022/08/26 02:11:12;;;;;;;5.03;2.75;;;;;;;24.42;100.00;-24494.44;4999822;28;20184;-62
2022/08/26 02:13:42;;;;;;;5.75;2.65;;;;;;;24.33;100.00;-24491.94;5003465;28;20215;-62
2022/08/26 02:16:08;;;;;;;3.28;2.38;;;;;;;24.07;100.00;-24484.91;5000213;28;20347;-63
2022/08/26 02:18:37;;;;;;;4.82;2.55;;;;;;;24.35;100.00;-24492.34;5012926;28;20709;-62
2022/08/26 02:21:03;;;;;;;4.50;2.30;;;;;;;24.08;100.00;-24485.19;5000002;28;20193;-62
2022/08/26 02:23:29;;;;;;;7.93;3.08;;;;;;;24.35;100.00;-24492.34;5003078;28;20180;-62
2022/08/26 02:26:09;;;;;;;4.00;2.30;;;;;;;24.25;100.00;-24489.75;4999958;28;20184;-62
2022/08/26 02:28:43;;;;;;;6.95;2.33;;;;;;;24.14;100.00;-24486.69;4998052;28;20573;-62
2022/08/26 02:31:08;;;;;;;6.70;2.83;;;;;;;24.00;100.00;-24482.84;4999932;28;20185;-62
2022/08/26 02:33:34;;;;;;;3.78;2.45;;;;;;;23.82;100.00;-24477.88;4998274;28;20567;-62
2022/08/26 02:35:59;;;;;;;4.90;2.28;;;;;;;23.88;100.00;-24479.53;5000009;28;20172;-62
2022/08/26 02:38:25;;;;;;;3.30;2.15;;;;;;;23.90;100.00;-24480.09;4998069;28;20181;-62
2022/08/26 02:40:50;;;;;;;4.07;2.95;;;;;;;23.88;100.00;-24479.66;5001309;28;20298;-62
2022/08/26 02:43:16;;;;;;;6.32;2.63;;;;;;;23.98;100.00;-24482.28;5001135;28;20310;-62
2022/08/26 02:45:42;;;;;;;7.32;3.22;;;;;;;23.73;100.00;-24475.66;5001225;28;20180;-62
2022/08/26 02:48:12;;;;;;;5.38;2.78;;;;;;;24.19;100.00;-24488.09;5001675;28;20650;-62
2022/08/26 02:50:38;;;;;;;7.00;2.50;;;;;;;23.90;100.00;-24480.22;4997603;28;20216;-62
2022/08/26 02:53:04;;;;;;;7.68;2.28;;;;;;;23.94;100.00;-24481.19;5001531;28;20207;-62
2022/08/26 02:55:30;;;;;;;4.63;2.40;;;;;;;24.21;100.00;-24488.63;4999328;28;20235;-62
2022/08/26 02:57:56;;;;;;;8.90;3.15;;;;;;;23.89;100.00;-24479.81;5001523;28;20635;-62
2022/08/26 03:00:22;;;;;;;6.63;3.35;;;;;;;23.71;100.00;-24474.97;4998544;28;20222;-62
2022/08/26 03:02:48;;;;;;;9.50;2.33;;;;;;;23.84;100.00;-24478.56;4998831;28;20187;-62
2022/08/26 03:05:14;;;;;;;3.53;2.42;;;;;;;23.75;100.00;-24476.09;5000654;28;20180;-62
2022/08/26 03:07:39;;;;;;;6.88;2.45;;;;;;;24.18;100.00;-24487.94;5001751;28;20188;-63
2022/08/26 03:10:06;;;;;;;4.43;2.40;;;;;;;23.87;100.00;-24479.38;5009811;28;20555;-62
2022/08/26 03:12:32;;;;;;;6.53;2.63;;;;;;;24.27;100.00;-24490.16;5002411;28;20193;-62
2022/08/26 03:14:57;;;;;;;5.65;2.40;;;;;;;24.30;100.00;-24490.97;4997548;28;20184;-62
2022/08/26 03:17:23;;;;;;;3.85;2.25;;;;;;;24.00;100.00;-24482.84;5003564;28;20210;-63
2022/08/26 03:19:48;;;;;;;5.57;2.55;;;;;;;23.97;100.00;-24482.16;4999517;28;20223;-63
2022/08/26 03:22:14;;;;;;;10.15;3.00;;;;;;;24.04;100.00;-24483.94;5002098;28;20529;-63
2022/08/26 03:24:39;;;;;;;6.82;2.97;;;;;;;23.92;100.00;-24480.63;4998629;28;20176;-63
2022/08/26 03:27:05;;;;;;;7.05;3.35;;;;;;;23.69;100.00;-24474.44;4997413;28;20180;-63
2022/08/26 03:32:15;;;;;;;13.07;2.75;;;;;;;24.12;100.00;-24486.16;4996027;28;20265;-62
2022/08/26 03:34:41;;;;;;;4.20;2.42;;;;;;;23.74;100.00;-24475.94;4994273;28;20184;-63
2022/08/26 03:37:07;;;;;;;5.47;2.70;;;;;;;23.89;100.00;-24479.94;4996155;28;20556;-61
2022/08/26 03:39:33;;;;;;;6.50;2.58;;;;;;;23.94;100.00;-24481.19;4992583;28;20604;-62
2022/08/26 03:41:59;;;;;;;6.82;2.58;;;;;;;23.89;100.00;-24479.94;4995734;28;20219;-63
2022/08/26 03:44:25;;;;;;;6.25;2.58;;;;;;;24.00;100.00;-24482.97;4994936;28;20219;-62
2022/08/26 03:46:52;;;;;;;8.00;2.75;;;;;;;23.71;100.00;-24475.13;4995339;28;20206;-62
2022/08/26 03:49:17;;;;;;;3.72;2.17;;;;;;;23.75;100.00;-24476.09;4996444;28;20191;-62
2022/08/26 03:51:43;;;;;;;4.70;2.78;;;;;;;23.78;100.00;-24477.03;4994027;28;20208;-63
2022/08/26 03:54:08;;;;;;;4.57;2.47;;;;;;;23.81;100.00;-24477.75;4996666;28;20194;-62
2022/08/26 03:56:35;;;;;;;6.63;2.60;;;;;;;23.64;100.00;-24473.03;4994723;28;20231;-62
2022/08/26 03:59:01;;;;;;;4.18;2.40;;;;;;;23.61;100.00;-24472.34;4995999;28;20172;-62
2022/08/26 04:01:27;;;;;;;4.88;2.50;;;;;;;23.97;100.00;-24482.00;4997454;28;20230;-61
2022/08/26 04:03:56;;;;;;;5.32;2.33;;;;;;;23.99;100.00;-24482.72;4996372;28;20180;-61
2022/08/26 04:06:31;;;;;;;6.00;2.58;;;;;;;23.70;100.00;-24474.84;4995537;28;20180;-61
2022/08/26 04:08:59;;;;;;;11.25;2.40;;;;;;;23.85;100.00;-24478.69;4995965;28;20675;-61
2022/08/26 04:11:30;;;;;;;3.75;2.22;;;;;;;23.93;100.00;-24481.06;4995028;28;20248;-61
2022/08/26 04:14:00;;;;;;;6.10;2.28;;;;;;;24.13;100.00;-24486.44;4996420;28;20295;-63
2022/08/26 04:16:27;;;;;;;5.70;2.15;;;;;;;23.96;100.00;-24481.72;4999970;28;20177;-63
2022/08/26 04:18:53;;;;;;;8.15;3.25;;;;;;;24.18;100.00;-24487.81;5001603;28;20259;-63
2022/08/26 04:21:19;;;;;;;7.80;2.40;;;;;;;24.15;100.00;-24486.97;5000530;28;20748;-64
2022/08/26 04:23:44;;;;;;;5.57;2.40;;;;;;;24.28;100.00;-24490.44;4997806;28;20581;-64
2022/08/26 04:26:10;;;;;;;8.65;2.50;;;;;;;24.24;100.00;-24489.47;5001519;28;20271;-64
2022/08/26 04:28:35;;;;;;;5.13;2.70;;;;;;;24.49;100.00;-24496.34;5002607;28;20184;-64
2022/08/26 04:31:02;;;;;;;6.18;2.22;;;;;;;24.35;100.00;-24492.34;5004772;28;20549;-64
2022/08/26 04:33:27;;;;;;;7.32;2.30;;;;;;;24.58;98.79;-24498.84;4999720;28;20211;-65
2022/08/26 04:36:01;;;;;;;4.22;2.50;;;;;;;24.55;100.00;-24498.00;4985209;28;20176;-65
2022/08/26 04:38:27;;;;;;;4.90;2.35;;;;;;;24.80;100.00;-24504.63;5000870;28;20187;-64
2022/08/26 04:40:52;;;;;;;6.53;2.05;;;;;;;24.91;100.00;-24507.78;5002496;28;20180;-64
2022/08/26 04:43:18;;;;;;;4.15;2.25;;;;;;;25.09;97.74;-24512.63;5005601;28;20271;-65
2022/08/26 04:45:43;;;;;;;3.63;2.25;;;;;;;24.90;96.04;-24507.38;5005004;28;20176;-65
2022/08/26 04:48:09;;;;;;;3.10;2.30;;;;;;;25.20;95.82;-24515.50;5002357;28;20178;-65
2022/08/26 04:50:34;;;;;;;6.40;2.63;;;;;;;25.65;94.01;-24527.75;5001743;28;20181;-65
2022/08/26 04:53:00;;;;;;;7.00;2.42;;;;;;;25.54;92.87;-24524.88;5002182;28;20207;-63
2022/08/26 04:55:25;;;;;;;4.28;2.65;;;;;;;25.79;92.51;-24531.59;5001657;28;20188;-63
2022/08/26 04:57:52;;;;;;;10.52;3.25;;;;;;;25.67;90.01;-24528.44;5000847;28;20561;-63
2022/08/26 05:00:17;;;;;;;4.82;2.05;;;;;;;26.04;88.51;-24538.47;5000498;28;20191;-64
2022/08/26 05:02:43;;;;;;;5.97;2.38;;;;;;;26.25;86.03;-24544.25;4998512;28;20575;-63
2022/08/26 05:05:09;;;;;;;5.10;2.58;;;;;;;25.90;88.44;-24534.75;5000353;28;20195;-63
2022/08/26 05:07:34;;;;;;;4.18;2.35;;;;;;;26.25;86.34;-24544.13;4999210;28;20185;-64
2022/08/26 05:10:01;;;;;;;8.65;2.40;;;;;;;26.39;85.26;-24547.97;5001015;28;20227;-64
2022/08/26 05:12:28;;;;;;;3.65;2.50;;;;;;;26.27;85.48;-24544.78;5000092;28;20296;-63
2022/08/26 05:14:54;;;;;;;4.82;2.10;;;;;;;26.08;85.41;-24539.44;4999405;28;20184;-63
2022/08/26 05:17:19;;;;;;;4.40;2.03;;;;;;;26.48;84.15;-24550.28;5002003;28;20560;-63
2022/08/26 05:19:46;;;;;;;3.03;2.40;;;;;;;26.58;82.21;-24553.19;5000595;28;20228;-64
2022/08/26 05:22:12;;;;;;;4.15;2.15;;;;;;;26.89;82.71;-24561.56;5000383;28;20184;-64
2022/08/26 05:24:37;;;;;;;3.75;2.13;;;;;;;27.07;80.62;-24566.47;5000580;28;20191;-64
2022/08/26 05:27:02;;;;;;;4.85;2.33;;;;;;;27.25;82.37;-24571.41;5002102;28;20610;-63
2022/08/26 05:29:28;;;;;;;5.25;2.30;;;;;;;27.06;80.68;-24566.06;5001934;28;20188;-63
2022/08/26 05:31:53;;;;;;;4.82;2.67;;;;;;;26.79;79.42;-24558.94;5002266;28;20176;-64
2022/08/26 05:34:19;;;;;;;4.85;2.05;;;;;;;27.12;77.91;-24567.72;5002742;28;20655;-64
2022/08/26 05:36:45;;;;;;;5.53;2.45;;;;;;;26.77;79.55;-24558.38;5000957;28;20633;-64
2022/08/26 05:39:11;;;;;;;3.25;2.00;;;;;;;26.54;78.75;-24551.94;5005195;28;20183;-64
2022/08/26 05:41:40;;;;;;;4.05;2.45;;;;;;;26.69;79.79;-24556.06;5004932;28;20626;-64
2022/08/26 05:44:08;;;;;;;5.47;1.98;;;;;;;26.49;79.68;-24550.69;5004766;28;20183;-64
2022/08/26 05:46:35;;;;;;;8.38;3.85;;;;;;;26.60;80.91;-24553.59;5001653;28;20685;-64
2022/08/26 05:49:01;;;;;;;3.75;2.00;;;;;;;26.65;82.31;-24554.97;5000344;28;20315;-64
2022/08/26 05:51:26;;;;;;;5.95;2.65;;;;;;;26.30;79.43;-24545.47;5009222;28;20255;-63
2022/08/26 05:53:52;;;;;;;5.07;2.53;;;;;;;26.86;78.63;-24560.59;4988653;28;20200;-63
2022/08/26 05:56:23;;;;;;;5.85;2.17;;;;;;;26.51;78.32;-24551.25;4999024;28;20183;-63
2022/08/26 05:58:49;;;;;;;5.63;2.50;;;;;;;26.76;78.65;-24557.97;5000345;28;20326;-63
2022/08/26 06:01:18;;;;;;;6.10;2.35;;;;;;;26.47;78.70;-24550.00;4999944;28;20271;-63
2022/08/26 06:03:47;;;;;;;5.50;2.15;;;;;;;26.71;78.92;-24556.59;4998291;28;20199;-63
2022/08/26 06:06:16;;;;;;;6.05;2.10;;;;;;;26.32;79.01;-24546.16;5004908;28;20203;-63
2022/08/26 06:08:42;;;;;;;3.67;1.98;;;;;;;26.46;80.23;-24549.75;5005462;28;20188;-65
2022/08/26 06:11:11;;;;;;;6.97;2.70;;;;;;;26.30;79.33;-24545.63;5012650;28;20270;-64
2022/08/26 06:13:37;;;;;;;5.65;2.58;;;;;;;26.36;79.95;-24547.28;5005954;28;20546;-63
2022/08/26 06:16:05;;;;;;;5.95;2.55;;;;;;;26.57;79.46;-24552.91;5003118;28;20293;-63
2022/08/26 06:18:35;;;;;;;8.68;2.40;;;;;;;26.26;80.54;-24544.38;5001501;28;20184;-63
2022/08/26 06:21:12;;;;;;;5.15;2.55;;;;;;;26.47;80.03;-24550.16;5006063;28;20192;-63
2022/08/26 06:26:22;;;;;;;4.55;1.90;;;;;;;26.41;81.49;-24548.38;4992934;28;20333;-65
2022/08/26 06:28:47;;;;;;;5.45;2.20;;;;;;;26.11;81.87;-24540.25;4999110;28;20293;-67
2022/08/26 06:31:14;;;;;;;5.47;2.03;;;;;;;26.25;80.15;-24544.13;4994798;28;20184;-65
2022/08/26 06:33:41;;;;;;;5.32;2.42;;;;;;;26.54;80.62;-24552.06;5012146;28;20246;-68
2022/08/26 06:36:07;;;;;;;6.75;2.47;;;;;;;26.51;80.34;-24551.25;5009517;28;20263;-63
2022/08/26 06:38:33;;;;;;;5.38;2.22;;;;;;;26.60;80.64;-24553.59;5009057;28;20272;-64
2022/08/26 06:40:58;;;;;;;6.72;2.38;;;;;;;26.77;81.18;-24558.25;5012097;28;20187;-65
2022/08/26 06:43:26;;;;;;;6.68;2.13;;;;;;;26.49;79.44;-24550.56;5012150;28;20637;-66
2022/08/26 06:46:00;;;;;;;6.50;2.60;;;;;;;26.72;78.51;-24557.03;5011776;28;20295;-67
2022/08/26 06:48:26;;;;;;;6.10;2.42;;;;;;;26.92;77.76;-24562.38;5012107;28;20295;-68
2022/08/26 06:51:01;;;;;;;6.05;2.45;;;;;;;27.09;76.34;-24567.03;5009490;28;20230;-64
2022/08/26 06:53:27;;;;;;;4.45;2.30;;;;;;;26.95;76.76;-24563.19;5001743;28;20225;-66
2022/08/26 06:55:52;;;;;;;4.95;2.50;;;;;;;27.18;75.47;-24569.50;5005831;28;20282;-67
2022/08/26 06:58:18;;;;;;;4.10;2.05;;;;;;;27.37;75.84;-24574.44;5006794;28;20672;-66
2022/08/26 07:00:43;;;;;;;7.80;2.65;;;;;;;27.15;74.17;-24568.53;4997263;28;20295;-67
2022/08/26 07:03:09;;;;;;;5.85;2.38;;;;;;;27.41;75.95;-24575.66;5003063;28;20195;-65
2022/08/26 07:05:34;;;;;;;4.15;2.40;;;;;;;27.48;75.21;-24577.59;5006977;28;20184;-68
2022/08/26 07:08:00;;;;;;;4.07;2.22;;;;;;;27.58;73.96;-24580.19;5009980;28;20172;-62
2022/08/26 07:10:26;;;;;;;4.78;2.70;;;;;;;27.73;73.59;-24584.31;4996827;28;20180;-65
2022/08/26 07:12:52;;;;;;;10.88;2.50;;;;;;;27.55;74.45;-24579.50;5001791;28;20291;-68
2022/08/26 07:15:18;;;;;;;4.80;2.15;;;;;;;27.61;74.74;-24581.16;5001024;28;20335;-65
2022/08/26 07:17:44;;;;;;;7.10;2.80;;;;;;;27.66;74.09;-24582.53;5008765;28;20271;-68
2022/08/26 07:20:10;;;;;;;7.75;2.50;;;;;;;28.00;72.62;-24591.56;5008590;28;20325;-64
2022/08/26 07:22:36;;;;;;;5.90;2.17;;;;;;;27.94;73.89;-24589.91;5009083;28;20176;-66
2022/08/26 07:25:06;;;;;;;4.35;2.67;;;;;;;28.35;71.21;-24601.16;5011654;28;20238;-64
2022/08/26 07:27:32;;;;;;;9.98;2.08;;;;;;;28.29;69.94;-24599.38;5012444;28;20179;-65
2022/08/26 07:29:57;;;;;;;2.78;1.92;;;;;;;28.00;70.93;-24591.56;5011778;28;20574;-67
2022/08/26 07:32:22;;;;;;;3.05;1.98;;;;;;;27.77;70.71;-24585.41;5011611;28;20575;-69
2022/08/26 07:34:48;;;;;;;5.15;2.42;;;;;;;28.25;69.33;-24598.28;5011734;28;20176;-64
2022/08/26 07:37:14;;;;;;;4.60;2.00;;;;;;;28.27;70.35;-24598.97;5011785;28;20307;-66
2022/08/26 07:39:40;;;;;;;4.40;2.47;;;;;;;28.45;69.89;-24603.75;5010320;28;20204;-67
2022/08/26 07:42:07;;;;;;;3.05;2.22;;;;;;;28.63;69.57;-24608.66;4998613;28;20700;-66
2022/08/26 07:44:33;;;;;;;4.22;2.20;;;;;;;28.63;69.15;-24608.66;4996942;28;20177;-69
2022/08/26 07:46:58;;;;;;;4.95;2.15;;;;;;;28.37;70.08;-24601.69;5005931;28;20207;-66
2022/08/26 07:49:25;;;;;;;6.45;2.63;;;;;;;28.64;70.70;-24608.81;5000633;28;20643;-66
2022/08/26 07:51:51;;;;;;;7.20;2.35;;;;;;;28.57;69.40;-24607.03;4998902;28;20271;-67
2022/08/26 07:54:17;;;;;;;3.80;2.42;;;;;;;28.39;69.92;-24602.09;5011666;28;20237;-68
2022/08/26 07:56:43;;;;;;;7.35;2.30;;;;;;;28.77;69.06;-24612.50;5011676;28;20180;-68
2022/08/26 07:59:10;;;;;;;6.20;2.42;;;;;;;28.72;70.09;-24611.00;5011472;28;20175;-67
2022/08/26 08:01:36;;;;;;;6.28;2.88;;;;;;;28.44;69.56;-24603.47;5013778;28;20183;-67
2022/08/26 08:04:03;;;;;;;5.57;2.50;;;;;;;28.69;68.38;-24610.31;5012984;28;20189;-64
2022/08/26 08:06:28;;;;;;;2.88;2.05;;;;;;;28.59;69.30;-24607.44;5005654;28;20183;-66
2022/08/26 08:08:54;;;;;;;7.47;2.50;;;;;;;28.57;70.10;-24606.88;5015823;28;20183;-65
2022/08/26 08:11:21;;;;;;;5.18;2.28;;;;;;;28.46;69.31;-24604.16;5015600;28;20180;-63
2022/08/26 08:13:48;;;;;;;5.85;2.35;;;;;;;28.40;70.30;-24602.38;5015350;28;20222;-66
2022/08/26 08:16:14;;;;;;;7.15;2.85;;;;;;;28.63;69.16;-24608.66;5014431;28;20630;-69
2022/08/26 08:18:39;;;;;;;4.85;2.92;;;;;;;28.54;70.09;-24606.34;5007921;28;20228;-68
2022/08/26 08:21:05;;;;;;;7.18;2.67;;;;;;;28.59;71.28;-24607.44;5001738;28;20188;-65
2022/08/26 08:23:31;;;;;;;3.92;2.47;;;;;;;28.35;70.97;-24601.16;5003019;28;20184;-67
2022/08/26 08:26:08;;;;;;;4.10;2.28;;;;;;;28.67;70.93;-24609.63;5012067;28;20215;-68
2022/08/26 08:28:35;;;;;;;4.75;2.65;;;;;;;28.19;72.46;-24596.63;5008758;28;20651;-69
2022/08/26 08:31:00;;;;;;;4.28;2.40;;;;;;;28.56;71.88;-24606.75;4998141;28;20169;-63
2022/08/26 08:33:29;;;;;;;4.82;2.47;;;;;;;28.51;72.02;-24605.38;5014923;28;20207;-69
2022/08/26 08:35:55;;;;;;;4.82;2.30;;;;;;;28.24;72.31;-24598.00;5007289;28;20178;-65
2022/08/26 08:38:21;;;;;;;7.00;2.40;;;;;;;28.32;73.30;-24600.19;5010580;28;20176;-69
2022/08/26 08:40:47;;;;;;;5.95;2.22;;;;;;;28.36;72.40;-24601.28;5014907;28;20191;-66
2022/08/26 08:43:29;;;;;;;6.85;2.60;;;;;;;28.35;73.81;-24601.16;5015030;28;20179;-65
2022/08/26 08:46:03;;;;;;;4.75;2.47;;;;;;;28.65;73.09;-24609.22;5008697;28;20184;-64
2022/08/26 08:48:35;;;;;;;4.50;2.42;;;;;;;28.84;72.78;-24614.28;5008807;28;20172;-65
2022/08/26 08:51:28;;;;;;;4.88;2.63;;;;;;;29.24;69.46;-24625.06;4999731;28;20651;-63
2022/08/26 08:53:53;;;;;;;5.45;2.65;;;;;;;29.66;67.31;-24636.53;5011989;28;20208;-65
2022/08/26 08:56:33;;;;;;;4.00;2.30;;;;;;;29.51;68.15;-24632.31;5009946;28;20190;-67
2022/08/26 08:59:01;;;;;;;4.95;2.67;;;;;;;29.64;68.38;-24636.00;5005553;28;20624;-67
2022/08/26 09:01:41;;;;;;;5.97;2.75;;;;;;;29.92;65.87;-24643.38;5008035;28;20171;-69
2022/08/26 09:04:45;;;;;;;4.53;2.95;;;;;;;30.05;64.42;-24647.03;4999462;28;20183;-66
2022/08/26 09:07:24;;;;;;;5.68;2.53;;;;;;;30.25;63.11;-24652.34;5002679;28;20219;-64
2022/08/26 09:10:00;;;;;;;4.03;2.40;;;;;;;30.76;60.64;-24665.97;5014486;28;20641;-67
2022/08/26 09:12:29;;;;;;;5.78;3.10;;;;;;;30.65;61.58;-24663.13;5004843;28;20210;-64
2022/08/26 09:15:06;;;;;;;4.80;2.83;;;;;;;30.97;62.96;-24671.69;5014280;28;20215;-69
2022/08/26 09:17:42;;;;;;;5.40;2.55;;;;;;;31.27;61.13;-24679.88;5001567;28;20234;-68
2022/08/26 09:20:20;;;;;;;4.75;2.50;;;;;;;31.28;61.94;-24680.13;5003351;28;20226;-67
2022/08/26 09:22:46;;;;;;;4.32;2.17;;;;;;;31.58;51.78;-24688.03;5006171;28;20238;-68
2022/08/26 09:25:13;;;;;;;8.48;2.55;;;;;;;31.06;54.25;-24674.16;5000599;28;20176;-67
2022/08/26 09:27:43;;;;;;;8.52;2.40;;;;;;;31.59;53.26;-24688.44;5009036;28;20663;-66
2022/08/26 09:30:13;;;;;;;4.75;2.10;;;;;;;31.73;51.35;-24692.09;5006563;28;20263;-68
2022/08/26 09:32:39;;;;;;;6.32;2.67;;;;;;;32.13;51.92;-24702.97;5010182;28;20831;-65
2022/08/26 09:35:17;;;;;;;5.32;2.58;;;;;;;32.57;53.60;-24714.78;5008883;28;20179;-66
2022/08/26 09:37:48;;;;;;;5.97;2.75;;;;;;;33.05;49.54;-24727.66;5013833;28;20376;-67
2022/08/26 09:40:22;;;;;;;6.78;2.25;;;;;;;32.60;46.15;-24715.47;5010040;28;20167;-68
2022/08/26 09:43:16;;;;;;;5.75;2.72;;;;;;;32.43;43.72;-24711.13;5012760;28;20183;-65
2022/08/26 09:45:46;;;;;;;11.00;2.13;;;;;;;32.58;46.05;-24715.06;5001522;28;20191;-65
2022/08/26 09:48:27;;;;;;;9.32;2.60;;;;;;;33.08;47.55;-24728.34;5013401;28;20211;-67
2022/08/26 09:50:57;;;;;;;6.22;2.70;;;;;;;33.22;44.62;-24732.28;5005271;28;20168;-65
2022/08/26 09:53:27;;;;;;;7.70;2.33;;;;;;;32.99;45.11;-24726.03;5012791;28;20691;-67
2022/08/26 09:56:15;;;;;;;5.70;2.65;;;;;;;32.68;40.03;-24717.63;5000724;28;20278;-62
2022/08/26 09:58:44;;;;;;;5.88;2.42;;;;;;;32.45;38.66;-24711.53;4986590;28;20206;-66
2022/08/26 10:01:28;;;;;;;4.35;2.40;;;;;;;32.37;42.04;-24709.34;5006440;28;20269;-67
2022/08/26 10:04:12;;;;;;;6.13;2.10;;;;;;;32.64;38.32;-24716.56;5003922;28;20187;-67
2022/08/26 10:06:54;;;;;;;6.05;2.70;;;;;;;31.70;42.69;-24691.44;5011820;28;20229;-65
2022/08/26 10:09:21;;;;;;;3.70;2.47;;;;;;;31.59;42.49;-24688.44;5012297;28;20187;-64
2022/08/26 10:11:52;;;;;;;4.80;2.10;;;;;;;32.09;43.77;-24701.88;5006714;28;20188;-64
2022/08/26 10:14:23;;;;;;;5.10;2.72;;;;;;;32.63;42.08;-24716.41;5013562;28;20180;-67
2022/08/26 10:17:10;;;;;;;4.47;2.42;;;;;;;31.96;43.71;-24698.34;5013241;28;20233;-64
2022/08/26 10:19:53;;;;;;;3.10;2.55;;;;;;;31.65;42.85;-24689.94;5013373;28;20233;-67
2022/08/26 10:22:39;;;;;;;6.43;2.10;;;;;;;32.16;39.95;-24703.78;5013834;28;20166;-66
2022/08/26 10:25:11;;;;;;;3.72;2.50;;;;;;;32.22;42.42;-24705.28;5013003;28;20183;-69
2022/08/26 10:27:55;;;;;;;7.82;3.20;;;;;;;32.26;41.92;-24706.50;5006271;28;20187;-67
2022/08/26 10:30:28;;;;;;;5.68;2.67;;;;;;;31.49;40.46;-24685.84;5012497;28;20179;-67
2022/08/26 10:33:05;;;;;;;7.20;3.67;;;;;;;30.88;41.52;-24669.25;5011328;28;20330;-64
2022/08/26 10:35:34;;;;;;;4.05;2.67;;;;;;;31.12;44.18;-24675.78;5000198;28;20192;-65
2022/08/26 10:38:06;;;;;;;3.50;2.38;;;;;;;30.96;43.71;-24671.56;5005607;28;20188;-63
2022/08/26 10:40:41;;;;;;;7.60;3.38;;;;;;;30.86;42.77;-24668.72;5002946;28;20180;-69
2022/08/26 10:43:16;;;;;;;5.10;2.55;;;;;;;30.78;43.46;-24666.66;5001876;28;20186;-65
2022/08/26 10:45:53;;;;;;;6.40;2.58;;;;;;;30.13;43.70;-24649.09;4997819;28;20195;-66
2022/08/26 10:48:45;;;;;;;4.45;2.70;;;;;;;29.24;45.74;-24625.06;5000892;28;20270;-65
2022/08/26 10:51:13;;;;;;;6.70;3.50;;;;;;;28.79;47.09;-24612.91;5000911;28;20337;-64
2022/08/26 10:53:48;;;;;;;9.52;2.55;;;;;;;28.71;49.48;-24610.88;4997519;28;20759;-68
2022/08/26 10:56:28;;;;;;;3.00;2.20;;;;;;;28.46;47.75;-24604.03;5001190;28;20198;-65
2022/08/26 10:59:35;;;;;;;5.05;2.60;;;;;;;28.27;47.57;-24598.97;5003634;28;20176;-64
2022/08/26 11:02:38;;;;;;;3.55;2.50;;;;;;;28.30;45.20;-24599.66;4905450;29;20191;-70
2022/08/26 11:05:15;;;;;;;7.15;2.90;;;;;;;28.29;48.77;-24599.50;4886854;29;20234;-67
2022/08/26 11:07:44;;;;;;;6.18;3.38;;;;;;;28.39;46.33;-24602.09;4981560;28;20200;-69
2022/08/26 11:10:11;;;;;;;9.93;3.55;;;;;;;28.41;47.15;-24602.78;5006049;28;20180;-67
2022/08/26 11:12:56;;;;;;;6.47;3.72;;;;;;;28.42;49.44;-24602.94;4999739;28;20686;-68
2022/08/26 11:15:28;;;;;;;4.70;2.95;;;;;;;29.06;48.36;-24620.28;4997368;28;20244;-66
2022/08/26 11:18:00;;;;;;;5.63;3.22;;;;;;;28.98;48.34;-24618.25;5000656;28;20211;-67
2022/08/26 11:20:45;;;;;;;7.25;3.35;;;;;;;29.08;47.76;-24620.69;5006000;28;20227;-64
2022/08/26 11:23:11;;;;;;;5.30;3.50;;;;;;;29.40;45.13;-24629.44;5006782;28;20676;-63
2022/08/26 11:26:08;;;;;;;5.82;3.17;;;;;;;29.56;45.46;-24633.81;5003466;28;20192;-69
2022/08/26 11:28:43;;;;;;;8.35;3.28;;;;;;;29.78;45.42;-24639.81;5004538;28;20184;-65
2022/08/26 11:31:11;;;;;;;4.53;3.22;;;;;;;29.60;45.99;-24634.91;5009047;28;20210;-69
2022/08/26 11:33:43;;;;;;;5.70;3.35;;;;;;;29.77;46.48;-24639.41;5000458;28;20261;-66
2022/08/26 11:36:09;;;;;;;4.18;3.05;;;;;;;29.93;45.33;-24643.78;5008456;28;20174;-67
2022/08/26 11:38:40;;;;;;;7.53;4.13;;;;;;;30.04;47.41;-24646.63;5002498;28;20666;-65